PDT,Max TemperatureF,Mean TemperatureF,Min TemperatureF,Max Dew PointF,MeanDew PointF,Min DewpointF,Max Humidity, Mean Humidity, Min Humidity, Max Sea Level PressureIn, Mean Sea Level PressureIn, Min Sea Level PressureIn, Max VisibilityMiles, Mean VisibilityMiles, Min VisibilityMiles, Max Wind SpeedMPH, Mean Wind SpeedMPH, Max Gust SpeedMPH,PrecipitationIn, CloudCover, Events, WindDirDegrees
2012-10-1,91,75,59,59,50,41,65,42,19,30.01,29.96,29.89,10,10,9,10,3,14,0.00,0,,352
2012-10-2,95,78,61,57,47,39,56,36,15,29.90,29.85,29.79,10,10,10,13,3,15,0.00,0,,352
2012-10-3,84,73,61,60,54,47,84,59,33,30.01,29.90,29.82,10,10,9,15,4,20,0.00,0,,342
2012-10-4,74,66,58,57,55,54,87,70,53,30.17,30.09,30.02,10,10,10,18,5,21,0.00,2,,358
2012-10-5,73,66,58,57,55,54,84,69,53,30.18,30.14,30.09,10,10,8,17,6,28,0.00,3,,343
2012-10-6,72,64,56,56,51,48,86,65,44,30.10,30.05,29.99,10,10,10,15,5,17,0.00,0,,336
2012-10-7,72,62,52,53,50,46,77,64,51,30.05,30.01,29.96,10,10,10,22,5,25,0.00,0,,345
2012-10-8,71,61,51,56,51,47,84,69,53,30.06,30.04,30.01,10,10,10,21,5,24,0.00,0,,355
2012-10-9,71,62,53,57,52,47,90,67,44,30.06,30.01,29.96,10,10,9,18,5,21,0.12,3,Rain,351
2012-10-10,70,64,57,57,55,51,100,79,57,29.99,29.96,29.90,10,10,10,18,4,21,0.00,4,,348
2012-10-11,62,60,57,52,51,50,80,74,67,30.00,29.95,29.92,10,10,10,10,4,15,T,8,,283
2012-10-12,66,61,55,56,52,48,93,77,60,30.24,30.11,29.99,10,10,9,14,4,26,T,7,Rain,344
2012-10-13,73,62,50,58,51,46,89,68,47,30.33,30.26,30.19,10,10,10,14,3,16,0.00,1,,338
2012-10-14,71,65,59,59,57,56,93,77,61,30.24,30.18,30.10,10,8,1,12,3,15,0.00,5,,345
2012-10-15,75,66,57,60,58,57,93,75,57,30.11,30.07,29.98,10,7,1,14,4,16,0.00,5,,5
2012-10-16,77,68,59,62,60,58,93,79,64,30.03,29.97,29.90,10,10,10,20,5,23,0.00,0,,349
2012-10-17,87,72,56,58,43,27,93,53,13,29.93,29.89,29.83,10,10,10,12,2,13,0.00,0,,306
2012-10-18,89,72,54,62,47,38,81,49,17,30.04,29.96,29.89,10,10,10,13,3,15,0.00,0,,140
2012-10-19,73,67,60,62,61,58,93,81,68,30.06,30.01,29.94,10,10,6,15,7,18,0.00,4,,337
2012-10-20,71,62,53,57,52,44,87,69,51,29.96,29.91,29.85,10,10,10,15,4,21,0.00,4,,339
2012-10-21,67,58,48,47,42,34,86,59,31,29.97,29.92,29.89,10,10,10,16,4,20,0.05,2,Rain,311
2012-10-22,64,59,54,54,49,41,100,72,43,29.96,29.87,29.78,10,8,2,22,7,28,0.12,6,Rain,137
2012-10-23,65,58,51,52,47,42,93,69,44,30.08,30.03,29.97,10,10,4,12,4,14,0.12,2,Rain,42
2012-10-24,68,59,50,51,47,42,89,66,42,30.22,30.13,30.07,10,9,6,14,6,16,0.14,6,Rain,141
2012-10-25,67,61,55,54,51,48,93,76,58,30.28,30.24,30.20,10,10,6,10,4,14,0.01,5,Rain,356
2012-10-26,75,64,52,53,44,29,83,52,20,30.25,30.18,30.11,10,10,10,12,4,15,0.00,0,,300
2012-10-27,80,66,52,58,52,47,89,63,37,30.11,30.04,29.97,10,10,10,13,3,15,0.00,0,,327
2012-10-28,80,68,55,58,56,52,90,68,45,30.05,30.00,29.96,10,10,10,13,4,15,0.00,0,,343
2012-10-29,71,63,55,58,56,54,100,81,61,30.13,30.08,30.05,10,8,3,13,3,15,0.00,3,,349
2012-10-30,69,62,54,57,56,53,93,78,63,30.12,30.05,30.00,10,8,2,12,3,15,0.00,5,,311
2012-10-31,66,63,59,57,54,52,93,78,63,30.05,30.02,29.99,10,10,4,9,4,12,0.13,7,Rain,145